Wharton, TX (77488)

7:22 PM CDT on July 23, 2016 (GMT -0500)
Wharton Regional | | Change Station

Elev 102 ft 29.25 °N, 96.15 °W | Updated 7 minutes ago

Clear
Clear
91 °F
Feels Like 98 °F
N
10
Wind Variable Wind from SSE

Today
High -- | Low -- °F
--% Chance of Precip.
Yesterday
High -- | Low -- °F
Precip. -- in
Pressure 29.89 in
Visibility 10.0 miles
Clouds Clear
Heat Index 98 °F
Dew Point 72 °F
Humidity 55%
Rainfall 0.00 in
Snow Depth Not available.
6:39 AM 8:21 PM
Waning Gibbous, 81% visible
METAR KARM 240015Z AUTO 16009KT 10SM CLR 33/23 A2989 RMK AO2 T03260225
Pressure 29.89 in
Visibility 10.0 miles
Clouds Clear
Heat Index 98 °F
Dew Point 72 °F
Humidity 55%
Rainfall 0.00 in
Snow Depth Not available.
6:39 AM 8:21 PM
Waning Gibbous, 81% visible
METAR KARM 240015Z AUTO 16009KT 10SM CLR 33/23 A2989 RMK AO2 T03260225

10-Day Weather Forecast

Almanac

Astronomy

Jul. 23, 2016 Rise Set
Actual Time
Civil Twilight
Nautical Twilight
Astronomical Twilight
Moon
Length of Visible Light
Length of Day
Tomorrow will be .
, % of the Moon is Illuminated

Today's Extremes

State Highs State Lows

Community

WunderPhotos

Upload Photos

1,926,979 photos uploaded!

WunderBlog® & News

Nearby

Air Quality

  Air Quality AQ Index Pollutant
Not available.

Snow Depth

Station Depth Elevation

Earthquake Activity

City Distance Mag. Time & Date
Minimum magnitude displayed is 2.5.

Coastal Water Temperatures

Place Temperature

Stations

Nearby Weather Stations

Station Location Temp. Windchill Dew Point Humidity Wind Precip. Elev Updated Type
                   

Watches & Warnings

There are currently no watches in effect.